Erastus, North Carolina
Current Conditions -  °F | °C
As of 11:20 AM on Tuesday 27 Jan 2015 (Local Time) from KAVL Reporting Station
Overcast Overcast  
Wind Chill: 21°   Ceiling: 2800
Heat Index: 32°   Visibility: 10mi
Dew Point: 22°   Wind: 16mph
Humidity: 66%   Direction: 360°N
Pressure: 29.87"   Gusts: 23mph
Location:  35.2608°N, 83.1173°W
Report Text: KAVL 271620Z 36014G20KT 10SM SCT022 BKN028 OVC036 00/M06 A2987 RMK AO2 T00001056
Loading
Personal Weather Stations






























Interactive Weather Map New forecast layout! Learn more

10-Day Weather Forecast

Advertisements
Track Severe Weather on mobile